Time;durP1;ratioP1;P1;durP2;ratioP2;P2;SDS_P1;SDS_P2;PMS_P1;PMS_P2;Temp;Humidity;BMP_temperature;BMP_pressure;BME280_temperature;BME280_humidity;BME280_pressure;Samples;Min_cycle;Max_cycle;Signal;HPM_P1;HPM_P2
2022/03/16 00:01:58;;;;;;;27.38;8.68;;;;;;;5.39;36.22;94891.75;5042626;28;20367;-76
2022/03/16 00:04:23;;;;;;;33.67;10.88;;;;;;;5.35;36.17;94890.66;5042793;28;20021;-77
2022/03/16 00:06:49;;;;;;;21.30;9.00;;;;;;;5.29;36.13;94879.28;5042719;28;20029;-77
2022/03/16 00:09:14;;;;;;;20.58;7.93;;;;;;;5.31;35.92;94879.81;5042635;28;20025;-77
2022/03/16 00:11:40;;;;;;;23.20;9.48;;;;;;;5.35;37.09;94891.47;5042591;28;20049;-77
2022/03/16 00:14:05;;;;;;;21.05;9.63;;;;;;;5.30;36.55;94894.06;5024968;28;20111;-77
2022/03/16 00:16:31;;;;;;;21.25;9.43;;;;;;;5.26;37.58;94882.41;5042484;28;20096;-76
2022/03/16 00:18:56;;;;;;;24.58;10.25;;;;;;;5.32;37.35;94891.97;5042516;28;20331;-77
2022/03/16 00:21:21;;;;;;;24.55;9.98;;;;;;;5.32;36.43;94889.34;5042629;28;20021;-78
2022/03/16 00:23:48;;;;;;;24.80;9.55;;;;;;;5.34;35.61;94884.59;5046256;28;20088;-78
2022/03/16 00:26:14;;;;;;;16.73;8.07;;;;;;;5.41;33.64;94879.88;5046545;28;20064;-78
2022/03/16 00:28:40;;;;;;;25.05;8.77;;;;;;;5.45;34.25;94874.06;5046441;28;20025;-78
2022/03/16 00:31:05;;;;;;;21.52;9.45;;;;;;;5.43;35.46;94861.09;5046419;28;20072;-77
2022/03/16 00:33:31;;;;;;;25.23;10.45;;;;;;;5.47;36.24;94870.13;5028746;28;20040;-77
2022/03/16 00:35:57;;;;;;;24.48;11.48;;;;;;;5.52;37.70;94858.78;5046378;28;20021;-78
2022/03/16 00:38:23;;;;;;;27.02;10.68;;;;;;;5.45;38.01;94848.44;5046409;28;20032;-78
2022/03/16 00:40:48;;;;;;;33.22;11.43;;;;;;;5.48;38.04;94839.22;5046399;28;20017;-78
2022/03/16 00:43:14;;;;;;;22.58;8.95;;;;;;;5.46;37.62;94834.16;5046301;28;20033;-78
2022/03/16 00:45:40;;;;;;;23.58;10.43;;;;;;;5.52;37.92;94825.22;5046123;28;20025;-78
2022/03/16 00:48:05;;;;;;;23.60;10.98;;;;;;;5.55;38.02;94810.66;5046335;28;20045;-79
2022/03/16 00:50:32;;;;;;;26.05;10.80;;;;;;;5.58;39.38;94821.53;5044979;28;20367;-78
2022/03/16 00:52:57;;;;;;;33.65;13.15;;;;;;;5.56;39.27;94807.78;5028565;28;20037;-78
2022/03/16 00:55:23;;;;;;;28.55;10.85;;;;;;;5.53;39.11;94807.47;5045940;28;20325;-78
2022/03/16 00:57:48;;;;;;;24.35;10.80;;;;;;;5.52;40.35;94819.13;5046055;28;20258;-78
2022/03/16 01:00:14;;;;;;;32.33;11.85;;;;;;;5.48;40.48;94807.47;5045863;28;20386;-79
2022/03/16 01:02:39;;;;;;;19.60;9.45;;;;;;;5.43;38.73;94816.97;5045971;28;20319;-79
2022/03/16 01:05:08;;;;;;;20.27;7.63;;;;;;;5.37;37.85;94807.44;5045971;28;20025;-79
2022/03/16 01:07:34;;;;;;;16.88;8.43;;;;;;;5.34;38.15;94810.56;5045616;28;20041;-79
2022/03/16 01:09:59;;;;;;;35.97;10.98;;;;;;;5.31;39.73;94799.69;5045818;28;20205;-78
2022/03/16 01:12:25;;;;;;;27.60;10.30;;;;;;;5.27;40.51;94794.16;5045714;28;20040;-77
2022/03/16 01:14:50;;;;;;;24.05;10.38;;;;;;;5.27;39.96;94783.59;5045836;28;20349;-78
2022/03/16 01:17:16;;;;;;;28.98;10.93;;;;;;;5.28;40.47;94782.50;5045583;28;20029;-77
2022/03/16 01:19:41;;;;;;;17.88;10.05;;;;;;;5.30;40.68;94782.25;5045494;28;20060;-78
2022/03/16 01:22:07;;;;;;;22.38;10.70;;;;;;;5.25;40.19;94776.94;5045517;28;20009;-78
2022/03/16 01:24:33;;;;;;;23.67;10.23;;;;;;;5.24;40.60;94773.50;5045612;28;20092;-78
2022/03/16 01:26:59;;;;;;;26.58;11.13;;;;;;;5.25;41.01;94758.44;5045469;28;20327;-77
2022/03/16 01:29:24;;;;;;;25.58;11.30;;;;;;;5.24;40.40;94752.38;5027920;28;20021;-78
2022/03/16 01:31:52;;;;;;;28.10;11.38;;;;;;;5.19;40.86;94752.31;5045471;28;20056;-78
2022/03/16 01:34:17;;;;;;;32.88;11.52;;;;;;;5.15;39.93;94761.81;5044301;28;20291;-78
2022/03/16 01:36:43;;;;;;;20.67;10.15;;;;;;;5.11;38.41;94755.44;5045112;28;20021;-78
2022/03/16 01:39:08;;;;;;;30.70;12.77;;;;;;;4.96;38.51;94756.97;5045266;28;20017;-78
2022/03/16 01:41:35;;;;;;;29.17;12.18;;;;;;;4.84;38.52;94761.63;5045239;28;20019;-78
2022/03/16 01:44:01;;;;;;;24.05;10.40;;;;;;;4.82;38.95;94771.66;5045305;28;20247;-77
2022/03/16 01:46:26;;;;;;;23.25;10.60;;;;;;;4.82;39.36;94759.28;5044971;28;20017;-77
2022/03/16 01:48:52;;;;;;;28.85;11.57;;;;;;;4.85;38.89;94755.31;5045483;28;20096;-78
2022/03/16 01:51:18;;;;;;;22.83;10.48;;;;;;;4.93;39.06;94752.19;5045000;28;20026;-77
2022/03/16 01:53:44;;;;;;;27.17;9.93;;;;;;;4.96;39.65;94737.69;5044985;28;20017;-79
2022/03/16 01:56:09;;;;;;;23.20;11.15;;;;;;;4.96;39.90;94751.69;5044685;28;20342;-79
2022/03/16 01:58:35;;;;;;;20.98;9.80;;;;;;;5.03;40.16;94752.25;5044980;28;20036;-79
2022/03/16 02:01:01;;;;;;;17.90;9.30;;;;;;;5.02;40.49;94728.72;5044754;28;20044;-79
2022/03/16 02:03:27;;;;;;;27.63;11.55;;;;;;;5.08;41.15;94734.84;5027141;28;20029;-78
2022/03/16 02:05:54;;;;;;;28.13;9.93;;;;;;;5.09;41.38;94728.50;5044723;28;20025;-78
2022/03/16 02:08:19;;;;;;;22.88;10.20;;;;;;;5.11;41.59;94723.75;5044988;28;20029;-78
2022/03/16 02:10:45;;;;;;;19.52;9.93;;;;;;;5.18;42.20;94737.53;5044495;28;20374;-78
2022/03/16 02:13:11;;;;;;;17.42;8.18;;;;;;;5.17;40.71;94722.72;5044461;28;20021;-78
2022/03/16 02:15:38;;;;;;;24.45;10.23;;;;;;;5.14;39.83;94720.59;5044459;28;20033;-79
2022/03/16 02:18:03;;;;;;;22.60;10.65;;;;;;;5.13;40.33;94722.47;5044608;28;20029;-79
2022/03/16 02:20:29;;;;;;;19.30;8.60;;;;;;;5.12;40.24;94720.06;5044329;28;20088;-78
2022/03/16 02:23:03;;;;;;;23.60;9.15;;;;;;;5.13;39.99;94724.28;5044415;28;20307;-78
2022/03/16 02:25:29;;;;;;;23.75;11.13;;;;;;;5.15;40.38;94722.19;5044628;28;20025;-78
2022/03/16 02:27:56;;;;;;;21.88;9.30;;;;;;;5.16;40.84;94715.84;5044381;28;20032;-77
2022/03/16 02:30:23;;;;;;;18.70;8.73;;;;;;;5.18;41.24;94705.81;5044430;28;20021;-77
2022/03/16 02:32:49;;;;;;;24.48;8.02;;;;;;;5.21;42.11;94710.56;5043946;28;20061;-77
2022/03/16 02:35:15;;;;;;;23.73;7.80;;;;;;;5.15;41.99;94706.31;5026586;28;20036;-77
2022/03/16 02:37:41;;;;;;;18.88;7.55;;;;;;;5.16;41.50;94715.84;5044093;28;20033;-77
2022/03/16 02:40:09;;;;;;;19.98;7.90;;;;;;;5.19;41.53;94696.81;5044022;28;20025;-77
2022/03/16 02:42:36;;;;;;;20.08;8.52;;;;;;;5.21;41.65;94695.53;5044097;28;20091;-77
2022/03/16 02:45:03;;;;;;;16.77;6.95;;;;;;;5.22;42.25;94696.31;5044012;28;20033;-78
2022/03/16 02:47:29;;;;;;;17.95;7.25;;;;;;;5.21;41.93;94694.72;5043902;28;20021;-78
2022/03/16 02:49:54;;;;;;;20.58;7.63;;;;;;;5.20;42.67;94709.78;5044036;28;20028;-77
2022/03/16 02:52:22;;;;;;;18.35;8.93;;;;;;;5.21;43.09;94707.94;5043661;28;20045;-77
2022/03/16 02:54:48;;;;;;;19.83;8.38;;;;;;;5.20;41.67;94701.06;5043784;28;20036;-77
2022/03/16 02:57:16;;;;;;;21.13;8.50;;;;;;;5.18;41.20;94701.31;5043896;28;20021;-77
2022/03/16 02:59:44;;;;;;;23.85;10.27;;;;;;;5.14;41.31;94704.75;5043810;28;20021;-77
2022/03/16 03:02:10;;;;;;;29.42;10.88;;;;;;;5.12;40.75;94702.34;5043550;28;20276;-77
2022/03/16 03:04:36;;;;;;;26.73;9.68;;;;;;;5.12;40.75;94685.72;5043587;28;20033;-77
2022/03/16 03:07:01;;;;;;;24.52;9.13;;;;;;;5.06;41.63;94681.44;5043673;28;20032;-78
2022/03/16 03:09:27;;;;;;;22.50;8.75;;;;;;;5.06;41.56;94673.53;5043572;28;20358;-77
2022/03/16 03:11:53;;;;;;;31.00;10.70;;;;;;;5.05;41.50;94659.53;5043503;28;20033;-77
2022/03/16 03:14:19;;;;;;;29.45;9.93;;;;;;;5.09;41.24;94662.44;5043477;28;20021;-77
2022/03/16 03:16:46;;;;;;;21.92;9.00;;;;;;;5.12;42.61;94667.22;5043398;28;20036;-77
2022/03/16 03:19:12;;;;;;;24.08;9.40;;;;;;;5.15;42.82;94664.03;5043151;28;20017;-76
2022/03/16 03:21:37;;;;;;;26.10;10.02;;;;;;;5.10;42.47;94661.38;5043280;28;20254;-78
2022/03/16 03:24:03;;;;;;;23.90;10.82;;;;;;;5.15;41.70;94664.84;5043454;28;20014;-77
2022/03/16 03:26:29;;;;;;;28.10;10.90;;;;;;;5.15;41.08;94669.31;5043414;28;20017;-78
2022/03/16 03:28:54;;;;;;;26.20;10.25;;;;;;;5.13;41.73;94666.97;5025630;28;20108;-77
2022/03/16 03:31:20;;;;;;;32.60;10.27;;;;;;;5.05;42.10;94669.28;5043125;28;20060;-77
2022/03/16 03:33:45;;;;;;;27.05;11.68;;;;;;;5.01;42.22;94672.47;5043050;28;20248;-77
2022/03/16 03:36:11;;;;;;;31.73;11.32;;;;;;;4.98;42.12;94664.25;5042979;28;20029;-77
2022/03/16 03:38:36;;;;;;;25.50;11.88;;;;;;;4.94;42.93;94677.16;5043112;28;20108;-76
2022/03/16 03:41:03;;;;;;;28.80;12.10;;;;;;;4.95;43.29;94660.28;5042923;28;20047;-77
2022/03/16 03:43:29;;;;;;;29.17;12.55;;;;;;;4.89;43.83;94663.94;5043047;28;20324;-78
2022/03/16 03:45:54;;;;;;;25.35;10.68;;;;;;;4.93;44.40;94656.31;5042945;28;20028;-78
2022/03/16 03:48:20;;;;;;;28.42;10.98;;;;;;;4.95;44.90;94660.28;5042882;28;20021;-76
2022/03/16 03:50:45;;;;;;;25.63;10.90;;;;;;;4.90;44.89;94652.31;5042873;28;20330;-78
2022/03/16 03:53:11;;;;;;;20.95;9.18;;;;;;;4.94;44.86;94642.03;5042856;28;20025;-78
2022/03/16 03:55:36;;;;;;;17.48;8.88;;;;;;;4.94;44.46;94658.66;5042761;28;20254;-78
2022/03/16 03:58:01;;;;;;;19.45;9.13;;;;;;;4.99;44.62;94650.78;5024542;28;20025;-77
2022/03/16 04:00:27;;;;;;;22.90;8.75;;;;;;;5.00;44.68;94652.34;5042468;28;20067;-76
2022/03/16 04:02:52;;;;;;;19.52;8.70;;;;;;;5.01;44.21;94653.16;5042923;28;20018;-77
2022/03/16 04:05:19;;;;;;;17.25;8.25;;;;;;;4.97;44.16;94652.88;5042762;28;20029;-77
2022/03/16 04:07:45;;;;;;;21.00;8.65;;;;;;;4.96;44.53;94653.91;5042549;28;20029;-77
2022/03/16 04:10:11;;;;;;;19.90;7.82;;;;;;;4.99;44.81;94663.19;5024957;28;20045;-77
2022/03/16 04:12:37;;;;;;;20.45;7.57;;;;;;;4.96;44.82;94651.28;5042461;28;20025;-77
2022/03/16 04:15:04;;;;;;;18.20;7.65;;;;;;;5.00;44.46;94649.72;5042484;28;20331;-78
2022/03/16 04:17:30;;;;;;;21.10;8.13;;;;;;;5.02;44.75;94647.59;5042465;28;20067;-77
2022/03/16 04:19:55;;;;;;;18.55;7.80;;;;;;;5.02;45.05;94644.97;5042418;28;20312;-77
2022/03/16 04:22:21;;;;;;;19.00;8.10;;;;;;;5.06;46.13;94645.25;5042649;28;20017;-77
2022/03/16 04:24:46;;;;;;;20.48;7.50;;;;;;;5.06;46.16;94634.69;5042276;28;20017;-77
2022/03/16 04:27:12;;;;;;;22.85;10.40;;;;;;;5.09;46.19;94643.94;5042575;28;20018;-77
2022/03/16 04:29:37;;;;;;;38.15;11.50;;;;;;;5.09;45.42;94633.34;5042161;28;20045;-78
2022/03/16 04:32:03;;;;;;;30.27;11.55;;;;;;;5.13;44.50;94637.88;5042224;28;20037;-78
2022/03/16 04:34:28;;;;;;;34.83;12.35;;;;;;;5.12;44.66;94622.28;5042227;28;20049;-78
2022/03/16 04:36:54;;;;;;;35.42;14.10;;;;;;;5.12;44.67;94622.28;5042442;28;20041;-78
2022/03/16 04:39:20;;;;;;;37.58;13.40;;;;;;;5.12;45.05;94630.22;5042316;28;20381;-78
2022/03/16 04:41:45;;;;;;;31.25;12.65;;;;;;;5.09;45.45;94613.03;5042431;28;20009;-78
2022/03/16 04:44:10;;;;;;;38.65;14.15;;;;;;;5.12;45.97;94620.44;5042243;28;20048;-78
2022/03/16 04:46:36;;;;;;;32.47;12.35;;;;;;;5.12;46.33;94614.34;5042346;28;20088;-78
2022/03/16 04:49:02;;;;;;;29.60;12.65;;;;;;;5.08;46.77;94605.38;5041896;28;20333;-78
2022/03/16 04:51:27;;;;;;;25.85;13.05;;;;;;;5.08;46.95;94605.38;5042200;28;20026;-78
2022/03/16 04:53:53;;;;;;;29.60;13.23;;;;;;;5.08;46.84;94610.66;5042518;28;20028;-78
2022/03/16 04:56:18;;;;;;;30.65;12.80;;;;;;;5.08;46.49;94605.38;5042260;28;20085;-78
2022/03/16 04:58:44;;;;;;;27.73;11.80;;;;;;;5.08;47.82;94603.50;5042011;28;20017;-78
2022/03/16 05:01:09;;;;;;;28.25;12.32;;;;;;;5.03;47.53;94599.00;5042202;28;20136;-78
2022/03/16 05:03:34;;;;;;;20.27;9.45;;;;;;;5.01;45.67;94605.63;5042089;28;20113;-78
2022/03/16 05:06:00;;;;;;;21.42;9.30;;;;;;;4.95;44.33;94594.22;5042435;28;20068;-78
2022/03/16 05:08:25;;;;;;;22.00;9.02;;;;;;;4.90;44.88;94588.91;5042018;28;20021;-77
2022/03/16 05:10:51;;;;;;;19.50;9.70;;;;;;;4.93;45.22;94593.69;5045873;28;20049;-77
2022/03/16 05:13:17;;;;;;;25.17;10.20;;;;;;;4.99;45.88;94597.94;5045581;28;20032;-77
2022/03/16 05:15:45;;;;;;;27.83;10.02;;;;;;;5.02;45.47;94594.75;5045631;28;20204;-77
2022/03/16 05:18:10;;;;;;;22.67;10.55;;;;;;;5.00;43.50;94586.31;5045693;28;20021;-77
2022/03/16 05:20:35;;;;;;;24.60;10.98;;;;;;;5.07;44.06;94587.91;5045845;28;20244;-77
2022/03/16 05:23:01;;;;;;;20.50;9.52;;;;;;;5.11;43.22;94581.88;5045434;28;20327;-77
2022/03/16 05:25:30;;;;;;;24.42;10.52;;;;;;;5.16;44.04;94581.06;5045290;28;20205;-77
2022/03/16 05:27:56;;;;;;;34.83;11.88;;;;;;;5.20;45.29;94579.50;5045386;28;20029;-77
2022/03/16 05:30:23;;;;;;;21.58;10.63;;;;;;;5.18;44.95;94576.31;5027904;28;20036;-77
2022/03/16 05:32:52;;;;;;;22.50;11.60;;;;;;;5.21;45.34;94573.13;5045312;28;20045;-77
2022/03/16 05:35:18;;;;;;;24.77;11.77;;;;;;;5.27;46.50;94569.47;5045302;28;20025;-78
2022/03/16 05:37:43;;;;;;;30.25;11.88;;;;;;;5.29;46.03;94561.25;5045352;28;20038;-78
2022/03/16 05:40:10;;;;;;;26.83;11.65;;;;;;;5.27;45.17;94556.25;5045151;28;20080;-77
2022/03/16 05:42:36;;;;;;;35.65;11.30;;;;;;;5.32;45.65;94560.75;5045166;28;20267;-79
2022/03/16 05:45:02;;;;;;;42.35;10.45;;;;;;;5.33;45.56;94552.56;5027553;28;20366;-78
2022/03/16 05:47:27;;;;;;;24.17;10.77;;;;;;;5.37;44.66;94536.94;5044961;28;20030;-79
2022/03/16 05:49:54;;;;;;;31.70;10.15;;;;;;;5.46;44.97;94529.31;5044842;28;20135;-78
2022/03/16 05:52:21;;;;;;;23.25;10.40;;;;;;;5.49;45.01;94529.56;5044973;28;20379;-79
2022/03/16 05:54:56;;;;;;;26.48;10.77;;;;;;;5.53;45.16;94524.53;5044781;28;20030;-77
2022/03/16 05:57:22;;;;;;;28.88;11.25;;;;;;;5.58;45.43;94538.56;5045139;28;20025;-79
2022/03/16 05:59:47;;;;;;;30.35;10.52;;;;;;;5.59;43.67;94536.69;5027435;28;20100;-77
2022/03/16 06:02:13;;;;;;;33.45;11.82;;;;;;;5.56;43.61;94532.75;5044741;28;20235;-78
2022/03/16 06:04:40;;;;;;;38.70;12.65;;;;;;;5.56;43.55;94530.09;5044582;28;20201;-78
2022/03/16 06:07:08;;;;;;;34.75;12.52;;;;;;;5.62;45.29;94541.47;5026758;28;20025;-79
2022/03/16 06:09:34;;;;;;;50.33;12.38;;;;;;;5.67;45.04;94544.09;5044606;28;20052;-77
2022/03/16 06:12:00;;;;;;;51.78;13.07;;;;;;;5.68;44.00;94550.19;5044673;28;20021;-78
2022/03/16 06:14:26;;;;;;;40.53;11.82;;;;;;;5.70;43.39;94551.53;5044202;28;20072;-77
2022/03/16 06:16:52;;;;;;;53.90;13.63;;;;;;;5.69;43.50;94549.94;5044746;28;20017;-77
2022/03/16 06:19:18;;;;;;;52.25;13.65;;;;;;;5.72;43.47;94544.13;5044623;28;20220;-77
2022/03/16 06:21:44;;;;;;;56.53;16.23;;;;;;;5.75;43.57;94538.28;5043912;28;20032;-78
2022/03/16 06:24:11;;;;;;;52.97;14.27;;;;;;;5.80;43.78;94540.94;5044383;28;20029;-77
2022/03/16 06:26:37;;;;;;;47.78;14.27;;;;;;;5.81;44.66;94542.50;5044504;28;20029;-77
2022/03/16 06:29:02;;;;;;;45.45;16.85;;;;;;;5.82;45.07;94541.47;5044536;28;20271;-78
2022/03/16 06:31:28;;;;;;;51.65;13.90;;;;;;;5.86;44.85;94540.91;5044306;28;20251;-78
2022/03/16 06:33:53;;;;;;;45.50;15.18;;;;;;;5.85;44.05;94534.06;5044217;28;20037;-77
2022/03/16 06:36:19;;;;;;;61.03;16.05;;;;;;;5.82;43.89;94533.53;5044640;28;20041;-76
2022/03/16 06:38:46;;;;;;;77.63;17.88;;;;;;;5.86;43.85;94540.91;5044180;28;20028;-76
2022/03/16 06:41:12;;;;;;;67.95;17.92;;;;;;;5.83;44.50;94542.25;5044222;28;20081;-76
2022/03/16 06:43:38;;;;;;;58.40;18.73;;;;;;;5.82;44.93;94541.47;5044022;28;20021;-76
2022/03/16 06:46:03;;;;;;;62.38;18.08;;;;;;;5.67;45.28;94553.91;5044228;28;20092;-76
2022/03/16 06:48:28;;;;;;;52.17;18.25;;;;;;;5.65;45.06;94540.94;5026384;28;20029;-76
2022/03/16 06:50:54;;;;;;;57.58;19.08;;;;;;;5.62;45.28;94552.06;5044280;28;20053;-76
2022/03/16 06:53:19;;;;;;;52.78;16.92;;;;;;;5.54;45.09;94547.28;5043994;28;20030;-76
2022/03/16 06:55:45;;;;;;;44.60;15.52;;;;;;;5.53;44.86;94540.41;5043903;28;20045;-77
2022/03/16 06:58:10;;;;;;;48.78;17.98;;;;;;;5.49;44.53;94557.84;5044001;28;20025;-75
2022/03/16 07:00:36;;;;;;;47.50;17.30;;;;;;;5.43;45.12;94544.66;5043967;28;20036;-76
2022/03/16 07:03:06;;;;;;;55.47;19.45;;;;;;;5.50;45.05;94547.03;5043479;28;20052;-77
2022/03/16 07:05:38;;;;;;;68.30;21.30;;;;;;;5.50;45.20;94549.66;5043895;28;20093;-76
2022/03/16 07:08:07;;;;;;;60.38;20.83;;;;;;;5.52;45.31;94546.75;5043883;28;20024;-75
2022/03/16 07:10:34;;;;;;;66.00;21.75;;;;;;;5.59;45.38;94539.34;5043790;28;20025;-75
2022/03/16 07:13:00;;;;;;;63.28;23.00;;;;;;;5.64;45.26;94542.00;5043744;28;20040;-74
2022/03/16 07:15:26;;;;;;;72.53;20.52;;;;;;;5.72;45.26;94524.78;5043864;28;20037;-81
2022/03/16 07:17:52;;;;;;;55.30;19.80;;;;;;;5.79;45.09;94531.41;5043665;28;20025;-81
2022/03/16 07:20:18;;;;;;;63.03;22.27;;;;;;;5.92;45.23;94542.50;5043428;28;20025;-79
2022/03/16 07:22:43;;;;;;;53.50;20.90;;;;;;;6.03;45.05;94542.25;5043401;28;20085;-80
2022/03/16 07:25:09;;;;;;;62.50;22.48;;;;;;;6.14;45.00;94548.31;5042469;28;20089;-80
2022/03/16 07:27:41;;;;;;;71.38;22.85;;;;;;;6.25;44.55;94540.34;5043541;28;20311;-81
2022/03/16 07:30:09;;;;;;;59.83;21.60;;;;;;;6.35;44.86;94537.69;5043167;28;20025;-78
2022/03/16 07:32:38;;;;;;;80.07;23.63;;;;;;;6.44;44.12;94536.06;5042284;28;20026;-78
2022/03/16 07:35:09;;;;;;;63.30;21.90;;;;;;;6.52;44.04;94538.16;5043009;28;20025;-79
2022/03/16 07:37:36;;;;;;;64.13;23.00;;;;;;;6.62;43.05;94529.41;5042983;28;20025;-80
2022/03/16 07:40:02;;;;;;;75.57;22.38;;;;;;;6.67;42.51;94523.28;5043132;28;20029;-78
2022/03/16 07:42:28;;;;;;;74.90;21.77;;;;;;;6.70;42.45;94530.69;5042920;28;20024;-78
2022/03/16 07:44:54;;;;;;;56.85;21.90;;;;;;;6.68;42.71;94525.66;5042797;28;20280;-79
2022/03/16 07:47:19;;;;;;;92.90;22.17;;;;;;;6.67;42.95;94518.75;5042594;28;20021;-79
2022/03/16 07:49:45;;;;;;;74.00;23.95;;;;;;;6.69;43.04;94521.94;5042944;28;20316;-79
2022/03/16 07:52:10;;;;;;;67.47;23.13;;;;;;;6.82;42.94;94524.00;5042895;28;20051;-79
2022/03/16 07:54:36;;;;;;;81.85;22.05;;;;;;;6.88;42.76;94523.97;5042874;28;20021;-79
2022/03/16 07:57:04;;;;;;;81.70;23.52;;;;;;;6.86;42.48;94528.75;5042723;28;20037;-78
2022/03/16 07:59:29;;;;;;;80.75;24.70;;;;;;;6.76;42.77;94522.44;5042691;28;20014;-78
2022/03/16 08:01:55;;;;;;;76.75;21.75;;;;;;;6.80;42.97;94523.47;5042751;28;20023;-78
2022/03/16 08:04:20;;;;;;;74.97;23.75;;;;;;;6.70;43.19;94518.22;5042466;28;20089;-79
2022/03/16 08:06:46;;;;;;;59.70;21.70;;;;;;;6.73;43.60;94522.97;5042866;28;20033;-78
2022/03/16 08:09:11;;;;;;;69.63;22.17;;;;;;;6.83;43.37;94527.44;5042467;28;20025;-77
2022/03/16 08:11:36;;;;;;;62.20;23.55;;;;;;;6.91;43.62;94524.22;5042791;28;20017;-78
2022/03/16 08:14:02;;;;;;;69.15;23.05;;;;;;;7.07;43.35;94513.53;5042623;28;20029;-78
2022/03/16 08:16:27;;;;;;;64.00;21.63;;;;;;;7.23;43.02;94513.16;5042682;28;20017;-78
2022/03/16 08:18:53;;;;;;;72.40;21.67;;;;;;;7.33;42.28;94517.59;5042427;28;20379;-76
2022/03/16 08:21:18;;;;;;;86.18;21.65;;;;;;;7.45;41.42;94511.97;5042445;28;20048;-76
2022/03/16 08:23:44;;;;;;;69.25;23.63;;;;;;;7.46;41.95;94518.84;5042332;28;20017;-76
2022/03/16 08:26:09;;;;;;;65.38;22.15;;;;;;;7.60;42.42;94497.78;5042473;28;20024;-76
2022/03/16 08:28:35;;;;;;;50.72;19.98;;;;;;;7.71;41.50;94498.47;5042220;28;20019;-80
2022/03/16 08:31:01;;;;;;;58.53;19.00;;;;;;;7.82;40.80;94495.44;5024879;28;20029;-80
2022/03/16 08:33:26;;;;;;;44.65;17.02;;;;;;;7.95;39.36;94491.34;5042311;28;20097;-76
2022/03/16 08:35:52;;;;;;;47.72;16.15;;;;;;;8.07;39.09;94483.00;5025017;28;20017;-79
2022/03/16 08:38:17;;;;;;;38.67;16.75;;;;;;;8.22;38.43;94474.88;5042356;28;20028;-79
2022/03/16 08:40:43;;;;;;;47.70;14.23;;;;;;;8.34;38.33;94479.78;5042496;28;20024;-76
2022/03/16 08:43:09;;;;;;;46.90;14.40;;;;;;;8.49;37.45;94470.88;5043258;28;20088;-82
2022/03/16 08:45:35;;;;;;;32.03;14.48;;;;;;;8.60;37.52;94468.88;5046224;28;20060;-79
2022/03/16 08:48:01;;;;;;;54.05;16.38;;;;;;;8.72;37.09;94479.09;5045874;28;20021;-80
2022/03/16 08:50:26;;;;;;;45.00;14.60;;;;;;;8.80;36.40;94486.44;5046120;28;20028;-79
2022/03/16 08:52:53;;;;;;;33.83;12.43;;;;;;;8.97;36.04;94485.94;5046346;28;20054;-79
2022/03/16 08:55:18;;;;;;;30.33;13.57;;;;;;;9.09;35.53;94488.97;5046414;28;20063;-80
2022/03/16 08:57:44;;;;;;;39.40;13.00;;;;;;;9.26;35.55;94477.84;5046147;28;20155;-83
2022/03/16 09:00:15;;;;;;;46.83;13.52;;;;;;;9.43;34.60;94479.97;5045899;28;20052;-79
2022/03/16 09:02:41;;;;;;;48.78;12.90;;;;;;;9.55;34.35;94476.84;5028260;28;20018;-79
2022/03/16 09:05:07;;;;;;;37.33;12.48;;;;;;;9.67;33.81;94471.03;5046012;28;20097;-80
2022/03/16 09:07:32;;;;;;;37.72;13.95;;;;;;;9.78;33.63;94459.94;5045876;28;20018;-77
2022/03/16 09:09:58;;;;;;;53.67;15.73;;;;;;;9.84;33.62;94466.75;5045670;28;20029;-78
2022/03/16 09:12:24;;;;;;;41.00;16.30;;;;;;;9.90;33.56;94467.47;5045820;28;20025;-78
2022/03/16 09:14:49;;;;;;;46.88;14.30;;;;;;;9.97;32.56;94483.06;5045753;28;20029;-78
2022/03/16 09:17:17;;;;;;;35.60;11.20;;;;;;;9.94;32.58;94475.66;5045637;28;20315;-79
2022/03/16 09:19:45;;;;;;;29.25;9.85;;;;;;;9.96;32.56;94478.81;5045232;28;20132;-77
2022/03/16 09:22:10;;;;;;;36.05;12.18;;;;;;;9.99;32.26;94483.53;5045599;28;20308;-80
2022/03/16 09:24:39;;;;;;;31.50;9.55;;;;;;;9.97;32.21;94488.38;5045564;28;20025;-81
2022/03/16 09:27:06;;;;;;;38.80;12.70;;;;;;;10.02;32.23;94488.28;5045516;28;20021;-78
2022/03/16 09:29:31;;;;;;;36.80;11.18;;;;;;;10.04;32.39;94494.91;5045316;28;20047;-79
2022/03/16 09:31:57;;;;;;;37.95;12.68;;;;;;;10.07;31.63;94493.53;5027514;28;20145;-78
2022/03/16 09:34:23;;;;;;;28.85;11.85;;;;;;;9.85;32.26;94488.88;5045325;28;20041;-78
2022/03/16 09:36:48;;;;;;;39.25;11.88;;;;;;;9.76;32.86;94485.28;5045200;28;20029;-77
2022/03/16 09:39:14;;;;;;;44.88;14.73;;;;;;;9.79;33.31;94482.84;5044971;28;20017;-79
2022/03/16 09:41:40;;;;;;;34.90;12.93;;;;;;;9.96;33.54;94494.81;5045151;28;20013;-79
2022/03/16 09:44:06;;;;;;;36.63;13.20;;;;;;;10.13;32.40;94495.00;5045201;28;20025;-79
2022/03/16 09:46:36;;;;;;;34.35;11.98;;;;;;;10.27;32.43;94487.03;5044838;28;20049;-79
2022/03/16 09:49:04;;;;;;;48.78;20.95;;;;;;;10.38;32.59;94474.31;5045174;28;20018;-79
2022/03/16 09:51:35;;;;;;;37.92;12.43;;;;;;;10.49;32.54;94473.06;5044749;28;20025;-78
2022/03/16 09:54:01;;;;;;;33.03;11.13;;;;;;;10.55;31.98;94477.19;5044966;28;20040;-77
2022/03/16 09:56:27;;;;;;;39.33;11.50;;;;;;;10.58;32.01;94473.97;5044056;28;20028;-79
2022/03/16 09:58:52;;;;;;;45.63;12.18;;;;;;;10.60;31.15;94473.63;5044998;28;20285;-79
2022/03/16 10:01:18;;;;;;;34.38;10.77;;;;;;;10.63;30.70;94487.16;5044533;28;20018;-79
2022/03/16 10:03:48;;;;;;;33.22;12.18;;;;;;;10.60;31.12;94487.78;5044551;28;20052;-79
2022/03/16 10:06:15;;;;;;;44.60;12.23;;;;;;;10.43;31.60;94476.91;5044742;28;20022;-80
2022/03/16 10:08:40;;;;;;;26.30;12.65;;;;;;;10.36;31.42;94476.50;5044695;28;20083;-80
2022/03/16 10:13:57;;;;;;;30.25;11.38;;;;;;;9.94;31.87;94473.78;5044766;28;20354;-77
2022/03/16 10:16:24;;;;;;;48.35;13.73;;;;;;;9.81;31.87;94462.03;5044598;28;20025;-79
2022/03/16 10:18:56;;;;;;;34.03;12.27;;;;;;;9.74;32.54;94464.28;5044301;28;20033;-82
2022/03/16 10:21:23;;;;;;;40.75;12.90;;;;;;;9.73;32.53;94461.91;5044534;28;20021;-82
2022/03/16 10:23:48;;;;;;;41.40;11.98;;;;;;;9.74;32.89;94460.81;5044424;28;20040;-81
2022/03/16 10:26:19;;;;;;;28.40;11.05;;;;;;;9.73;33.14;94453.91;5044410;28;20025;-82
2022/03/16 10:28:48;;;;;;;28.13;12.48;;;;;;;9.73;33.23;94453.91;5044155;28;20025;-82
2022/03/16 10:31:16;;;;;;;35.13;12.88;;;;;;;9.74;33.50;94458.94;5044292;28;20096;-80
2022/03/16 10:33:50;;;;;;;33.45;11.75;;;;;;;9.76;32.98;94456.00;5044079;28;20049;-81
2022/03/16 10:36:20;;;;;;;37.78;13.13;;;;;;;9.80;33.04;94465.75;5026303;28;20112;-78
2022/03/16 10:38:47;;;;;;;54.50;13.52;;;;;;;9.83;32.70;94459.88;5044259;28;20097;-78
2022/03/16 10:41:14;;;;;;;44.72;12.65;;;;;;;9.84;32.05;94464.09;5044015;28;20239;-79
2022/03/16 10:46:40;;;;;;;41.65;12.10;;;;;;;9.81;31.45;94467.34;5044247;28;20070;-79
2022/03/16 10:49:10;;;;;;;42.97;12.68;;;;;;;9.78;31.77;94456.50;5044449;28;20029;-79
2022/03/16 10:51:36;;;;;;;34.95;12.70;;;;;;;9.66;32.25;94454.28;5043865;28;20030;-79
2022/03/16 10:54:04;;;;;;;40.53;11.77;;;;;;;9.72;32.83;94450.47;5044199;28;20092;-79
2022/03/16 10:56:30;;;;;;;32.63;11.98;;;;;;;9.77;32.95;94455.72;5043911;28;20033;-79
2022/03/16 10:58:57;;;;;;;37.83;12.95;;;;;;;9.83;32.78;94451.88;5043848;28;20029;-78
2022/03/16 11:01:23;;;;;;;35.15;12.60;;;;;;;10.00;32.89;94447.84;5043777;28;20032;-80
2022/03/16 11:03:50;;;;;;;47.67;13.30;;;;;;;10.13;32.69;94436.41;5043796;28;20021;-79
2022/03/16 11:06:20;;;;;;;34.60;13.48;;;;;;;10.27;32.11;94435.63;5042902;28;20048;-79
2022/03/16 11:08:47;;;;;;;49.58;12.90;;;;;;;10.44;32.30;94435.84;5043178;28;20135;-78
2022/03/16 11:14:00;;;;;;;32.97;13.65;;;;;;;10.74;32.33;94423.75;5043642;28;20028;-79
2022/03/16 11:16:26;;;;;;;50.80;14.93;;;;;;;10.87;32.11;94424.00;5043382;28;20021;-79
2022/03/16 11:18:52;;;;;;;50.58;14.05;;;;;;;10.96;31.54;94422.22;5043459;28;20212;-79
2022/03/16 11:21:25;;;;;;;43.22;13.05;;;;;;;11.08;31.93;94419.03;5042904;28;20022;-79
2022/03/16 11:27:10;;;;;;;40.95;13.63;;;;;;;11.36;31.50;94396.47;5043328;28;20028;-79
2022/03/16 11:30:12;;;;;;;52.83;12.95;;;;;;;11.53;31.42;94392.34;5043276;28;20025;-78
2022/03/16 11:32:42;;;;;;;58.20;13.15;;;;;;;11.63;31.21;94392.06;5031199;28;20335;-81
2022/03/16 11:35:14;;;;;;;44.67;15.80;;;;;;;11.70;31.40;94389.75;5043143;28;20110;-78